sensor_id;sensor_type;location;lat;lon;timestamp;P1;durP1;ratioP1;P2;durP2;ratioP2
61435;SDS011;47304;47.456;19.160;2023-07-29T00:02:25;8.40;;;3.60;;
61435;SDS011;47304;47.456;19.160;2023-07-29T00:04:51;10.80;;;3.40;;
61435;SDS011;47304;47.456;19.160;2023-07-29T00:07:18;8.00;;;3.70;;
61435;SDS011;47304;47.456;19.160;2023-07-29T00:09:44;10.20;;;3.90;;
61435;SDS011;47304;47.456;19.160;2023-07-29T00:12:11;7.10;;;3.20;;
61435;SDS011;47304;47.456;19.160;2023-07-29T00:14:37;8.30;;;3.10;;
61435;SDS011;47304;47.456;19.160;2023-07-29T00:17:04;7.90;;;3.30;;
61435;SDS011;47304;47.456;19.160;2023-07-29T00:19:30;9.30;;;3.40;;
61435;SDS011;47304;47.456;19.160;2023-07-29T00:21:57;9.40;;;3.90;;
61435;SDS011;47304;47.456;19.160;2023-07-29T00:24:23;8.00;;;3.40;;
61435;SDS011;47304;47.456;19.160;2023-07-29T00:26:50;9.70;;;3.30;;
61435;SDS011;47304;47.456;19.160;2023-07-29T00:29:16;11.40;;;3.60;;
61435;SDS011;47304;47.456;19.160;2023-07-29T00:31:43;7.10;;;3.40;;
61435;SDS011;47304;47.456;19.160;2023-07-29T00:34:09;12.20;;;6.40;;
61435;SDS011;47304;47.456;19.160;2023-07-29T00:36:36;33.10;;;17.30;;
61435;SDS011;47304;47.456;19.160;2023-07-29T00:39:03;17.50;;;9.10;;
61435;SDS011;47304;47.456;19.160;2023-07-29T00:41:30;13.70;;;6.80;;
61435;SDS011;47304;47.456;19.160;2023-07-29T00:43:56;9.00;;;3.90;;
61435;SDS011;47304;47.456;19.160;2023-07-29T00:46:22;8.20;;;4.00;;
61435;SDS011;47304;47.456;19.160;2023-07-29T00:48:50;7.60;;;3.50;;
61435;SDS011;47304;47.456;19.160;2023-07-29T00:51:17;8.10;;;3.70;;
61435;SDS011;47304;47.456;19.160;2023-07-29T00:53:44;10.20;;;4.00;;
61435;SDS011;47304;47.456;19.160;2023-07-29T00:56:10;11.30;;;3.40;;
61435;SDS011;47304;47.456;19.160;2023-07-29T00:58:37;8.80;;;3.30;;
61435;SDS011;47304;47.456;19.160;2023-07-29T01:01:04;7.30;;;3.30;;
61435;SDS011;47304;47.456;19.160;2023-07-29T01:03:31;7.60;;;3.10;;
61435;SDS011;47304;47.456;19.160;2023-07-29T01:06:07;8.50;;;3.90;;
61435;SDS011;47304;47.456;19.160;2023-07-29T01:11:38;7.40;;;3.60;;
61435;SDS011;47304;47.456;19.160;2023-07-29T01:17:32;8.30;;;3.60;;
61435;SDS011;47304;47.456;19.160;2023-07-29T01:22:32;7.70;;;3.50;;
61435;SDS011;47304;47.456;19.160;2023-07-29T01:24:59;7.50;;;3.40;;
61435;SDS011;47304;47.456;19.160;2023-07-29T01:27:26;8.30;;;3.50;;
61435;SDS011;47304;47.456;19.160;2023-07-29T01:29:53;10.20;;;4.00;;
61435;SDS011;47304;47.456;19.160;2023-07-29T01:40:54;8.80;;;3.10;;
61435;SDS011;47304;47.456;19.160;2023-07-29T01:43:22;7.60;;;3.80;;
61435;SDS011;47304;47.456;19.160;2023-07-29T01:45:49;7.50;;;3.40;;
61435;SDS011;47304;47.456;19.160;2023-07-29T01:48:16;8.50;;;3.70;;
61435;SDS011;47304;47.456;19.160;2023-07-29T01:50:42;9.30;;;3.60;;
61435;SDS011;47304;47.456;19.160;2023-07-29T01:53:09;9.00;;;3.30;;
61435;SDS011;47304;47.456;19.160;2023-07-29T01:55:35;10.00;;;3.80;;
61435;SDS011;47304;47.456;19.160;2023-07-29T01:58:02;8.40;;;3.70;;
61435;SDS011;47304;47.456;19.160;2023-07-29T02:00:29;8.30;;;3.90;;
61435;SDS011;47304;47.456;19.160;2023-07-29T02:02:55;7.40;;;3.40;;
61435;SDS011;47304;47.456;19.160;2023-07-29T02:05:22;7.10;;;3.20;;
61435;SDS011;47304;47.456;19.160;2023-07-29T02:07:48;8.00;;;3.80;;
61435;SDS011;47304;47.456;19.160;2023-07-29T02:10:15;8.00;;;4.00;;
61435;SDS011;47304;47.456;19.160;2023-07-29T02:12:41;9.00;;;3.70;;
61435;SDS011;47304;47.456;19.160;2023-07-29T02:15:08;8.50;;;3.80;;
61435;SDS011;47304;47.456;19.160;2023-07-29T02:17:35;9.90;;;3.90;;
61435;SDS011;47304;47.456;19.160;2023-07-29T02:20:02;9.40;;;3.70;;
61435;SDS011;47304;47.456;19.160;2023-07-29T02:22:29;8.00;;;3.70;;
61435;SDS011;47304;47.456;19.160;2023-07-29T02:24:56;7.20;;;3.60;;
61435;SDS011;47304;47.456;19.160;2023-07-29T02:27:22;7.70;;;3.60;;
61435;SDS011;47304;47.456;19.160;2023-07-29T02:29:49;8.10;;;3.80;;
61435;SDS011;47304;47.456;19.160;2023-07-29T02:32:16;9.30;;;3.90;;
61435;SDS011;47304;47.456;19.160;2023-07-29T02:34:42;9.80;;;3.90;;
61435;SDS011;47304;47.456;19.160;2023-07-29T02:37:09;7.90;;;3.70;;
61435;SDS011;47304;47.456;19.160;2023-07-29T02:39:36;9.00;;;3.60;;
61435;SDS011;47304;47.456;19.160;2023-07-29T02:42:03;8.40;;;3.80;;
61435;SDS011;47304;47.456;19.160;2023-07-29T02:44:30;9.20;;;4.10;;
61435;SDS011;47304;47.456;19.160;2023-07-29T02:46:56;8.10;;;3.50;;
61435;SDS011;47304;47.456;19.160;2023-07-29T02:49:23;8.40;;;3.80;;
61435;SDS011;47304;47.456;19.160;2023-07-29T02:51:49;9.30;;;3.90;;
61435;SDS011;47304;47.456;19.160;2023-07-29T02:54:16;8.40;;;4.00;;
61435;SDS011;47304;47.456;19.160;2023-07-29T02:56:43;9.30;;;4.00;;
61435;SDS011;47304;47.456;19.160;2023-07-29T02:59:09;7.50;;;3.70;;
61435;SDS011;47304;47.456;19.160;2023-07-29T03:01:36;8.20;;;3.70;;
61435;SDS011;47304;47.456;19.160;2023-07-29T03:04:02;7.80;;;3.80;;
61435;SDS011;47304;47.456;19.160;2023-07-29T03:06:29;8.70;;;3.80;;
61435;SDS011;47304;47.456;19.160;2023-07-29T03:08:55;9.00;;;4.00;;
61435;SDS011;47304;47.456;19.160;2023-07-29T03:11:22;9.10;;;4.10;;
61435;SDS011;47304;47.456;19.160;2023-07-29T03:13:48;11.80;;;4.10;;
61435;SDS011;47304;47.456;19.160;2023-07-29T03:16:16;9.50;;;4.30;;
61435;SDS011;47304;47.456;19.160;2023-07-29T03:18:43;9.70;;;3.80;;
61435;SDS011;47304;47.456;19.160;2023-07-29T03:21:11;10.30;;;4.70;;
61435;SDS011;47304;47.456;19.160;2023-07-29T03:23:38;8.70;;;4.30;;
61435;SDS011;47304;47.456;19.160;2023-07-29T03:26:04;8.70;;;3.70;;
61435;SDS011;47304;47.456;19.160;2023-07-29T03:28:32;10.30;;;4.00;;
61435;SDS011;47304;47.456;19.160;2023-07-29T03:30:59;10.50;;;4.80;;
61435;SDS011;47304;47.456;19.160;2023-07-29T03:33:26;10.80;;;4.30;;
61435;SDS011;47304;47.456;19.160;2023-07-29T03:35:53;9.10;;;4.00;;
61435;SDS011;47304;47.456;19.160;2023-07-29T03:38:19;8.70;;;4.80;;
61435;SDS011;47304;47.456;19.160;2023-07-29T03:40:46;9.10;;;4.70;;
61435;SDS011;47304;47.456;19.160;2023-07-29T03:43:13;8.70;;;4.40;;
61435;SDS011;47304;47.456;19.160;2023-07-29T03:45:40;9.40;;;4.30;;
61435;SDS011;47304;47.456;19.160;2023-07-29T03:48:07;9.00;;;4.30;;
61435;SDS011;47304;47.456;19.160;2023-07-29T03:50:35;12.20;;;4.90;;
61435;SDS011;47304;47.456;19.160;2023-07-29T03:53:03;9.70;;;4.90;;
61435;SDS011;47304;47.456;19.160;2023-07-29T03:55:30;9.90;;;4.80;;
61435;SDS011;47304;47.456;19.160;2023-07-29T03:57:58;11.40;;;4.90;;
61435;SDS011;47304;47.456;19.160;2023-07-29T04:00:25;12.00;;;4.60;;
61435;SDS011;47304;47.456;19.160;2023-07-29T04:02:53;9.30;;;4.30;;
61435;SDS011;47304;47.456;19.160;2023-07-29T04:05:19;10.20;;;4.30;;
61435;SDS011;47304;47.456;19.160;2023-07-29T04:07:46;8.10;;;4.00;;
61435;SDS011;47304;47.456;19.160;2023-07-29T04:10:13;8.90;;;4.40;;
61435;SDS011;47304;47.456;19.160;2023-07-29T04:12:40;7.70;;;3.80;;
61435;SDS011;47304;47.456;19.160;2023-07-29T04:15:07;10.30;;;4.60;;
61435;SDS011;47304;47.456;19.160;2023-07-29T04:17:34;8.70;;;4.30;;
61435;SDS011;47304;47.456;19.160;2023-07-29T04:20:01;10.90;;;4.60;;
61435;SDS011;47304;47.456;19.160;2023-07-29T04:22:27;10.80;;;4.40;;
61435;SDS011;47304;47.456;19.160;2023-07-29T04:24:54;8.40;;;4.00;;
61435;SDS011;47304;47.456;19.160;2023-07-29T04:27:21;9.20;;;4.10;;
61435;SDS011;47304;47.456;19.160;2023-07-29T04:29:47;9.80;;;4.50;;
61435;SDS011;47304;47.456;19.160;2023-07-29T04:32:14;9.50;;;4.60;;
61435;SDS011;47304;47.456;19.160;2023-07-29T04:34:40;9.60;;;3.90;;
61435;SDS011;47304;47.456;19.160;2023-07-29T04:37:07;10.20;;;4.50;;
61435;SDS011;47304;47.456;19.160;2023-07-29T04:39:33;13.00;;;5.20;;
61435;SDS011;47304;47.456;19.160;2023-07-29T04:42:00;9.70;;;4.70;;
61435;SDS011;47304;47.456;19.160;2023-07-29T04:44:26;10.60;;;4.40;;
61435;SDS011;47304;47.456;19.160;2023-07-29T04:46:53;10.60;;;4.80;;
61435;SDS011;47304;47.456;19.160;2023-07-29T04:49:19;8.70;;;4.60;;
61435;SDS011;47304;47.456;19.160;2023-07-29T04:51:46;8.50;;;4.10;;
61435;SDS011;47304;47.456;19.160;2023-07-29T04:54:12;9.80;;;4.60;;
61435;SDS011;47304;47.456;19.160;2023-07-29T04:56:39;8.80;;;4.30;;
61435;SDS011;47304;47.456;19.160;2023-07-29T04:59:05;11.90;;;5.00;;
61435;SDS011;47304;47.456;19.160;2023-07-29T05:01:32;9.60;;;4.60;;
61435;SDS011;47304;47.456;19.160;2023-07-29T05:03:58;9.30;;;4.50;;
61435;SDS011;47304;47.456;19.160;2023-07-29T05:06:25;10.10;;;5.10;;
61435;SDS011;47304;47.456;19.160;2023-07-29T05:08:52;8.90;;;5.00;;
61435;SDS011;47304;47.456;19.160;2023-07-29T05:11:18;14.70;;;5.30;;
61435;SDS011;47304;47.456;19.160;2023-07-29T05:13:45;13.10;;;7.00;;
61435;SDS011;47304;47.456;19.160;2023-07-29T05:16:11;10.80;;;6.00;;
61435;SDS011;47304;47.456;19.160;2023-07-29T05:18:38;13.40;;;5.70;;
61435;SDS011;47304;47.456;19.160;2023-07-29T05:21:04;13.80;;;6.00;;
61435;SDS011;47304;47.456;19.160;2023-07-29T05:23:31;9.70;;;5.70;;
61435;SDS011;47304;47.456;19.160;2023-07-29T05:25:57;15.60;;;6.20;;
61435;SDS011;47304;47.456;19.160;2023-07-29T05:28:24;14.70;;;5.50;;
61435;SDS011;47304;47.456;19.160;2023-07-29T05:30:51;10.00;;;4.90;;
61435;SDS011;47304;47.456;19.160;2023-07-29T05:33:18;10.30;;;5.00;;
61435;SDS011;47304;47.456;19.160;2023-07-29T05:35:45;9.30;;;5.20;;
61435;SDS011;47304;47.456;19.160;2023-07-29T05:38:11;10.00;;;4.80;;
61435;SDS011;47304;47.456;19.160;2023-07-29T05:40:38;8.50;;;4.50;;
61435;SDS011;47304;47.456;19.160;2023-07-29T05:43:04;8.40;;;4.70;;
61435;SDS011;47304;47.456;19.160;2023-07-29T05:45:31;9.10;;;4.40;;
61435;SDS011;47304;47.456;19.160;2023-07-29T05:47:57;8.70;;;4.40;;
61435;SDS011;47304;47.456;19.160;2023-07-29T05:50:24;9.60;;;5.10;;
61435;SDS011;47304;47.456;19.160;2023-07-29T05:52:51;10.30;;;4.60;;
61435;SDS011;47304;47.456;19.160;2023-07-29T05:55:17;8.70;;;4.30;;
61435;SDS011;47304;47.456;19.160;2023-07-29T05:57:44;13.30;;;5.00;;
61435;SDS011;47304;47.456;19.160;2023-07-29T06:00:10;11.70;;;5.40;;
61435;SDS011;47304;47.456;19.160;2023-07-29T06:02:37;9.20;;;4.50;;
61435;SDS011;47304;47.456;19.160;2023-07-29T06:05:04;10.90;;;5.00;;
61435;SDS011;47304;47.456;19.160;2023-07-29T06:07:31;10.40;;;4.90;;
61435;SDS011;47304;47.456;19.160;2023-07-29T06:09:57;8.50;;;4.90;;
61435;SDS011;47304;47.456;19.160;2023-07-29T06:12:24;8.40;;;4.40;;
61435;SDS011;47304;47.456;19.160;2023-07-29T06:14:50;10.10;;;4.20;;
61435;SDS011;47304;47.456;19.160;2023-07-29T06:17:17;8.00;;;3.90;;
61435;SDS011;47304;47.456;19.160;2023-07-29T06:19:43;7.90;;;3.80;;
61435;SDS011;47304;47.456;19.160;2023-07-29T06:22:10;9.50;;;4.60;;
61435;SDS011;47304;47.456;19.160;2023-07-29T06:24:36;7.70;;;4.10;;
61435;SDS011;47304;47.456;19.160;2023-07-29T06:27:03;9.60;;;4.20;;
61435;SDS011;47304;47.456;19.160;2023-07-29T06:29:30;10.70;;;4.50;;
61435;SDS011;47304;47.456;19.160;2023-07-29T06:31:58;7.90;;;4.60;;
61435;SDS011;47304;47.456;19.160;2023-07-29T06:34:24;10.50;;;4.40;;
61435;SDS011;47304;47.456;19.160;2023-07-29T06:36:52;11.50;;;4.40;;
61435;SDS011;47304;47.456;19.160;2023-07-29T06:39:18;9.40;;;4.00;;
61435;SDS011;47304;47.456;19.160;2023-07-29T06:41:45;7.70;;;3.80;;
61435;SDS011;47304;47.456;19.160;2023-07-29T06:44:11;9.40;;;3.60;;
61435;SDS011;47304;47.456;19.160;2023-07-29T06:46:38;8.80;;;3.50;;
61435;SDS011;47304;47.456;19.160;2023-07-29T06:49:06;7.80;;;3.20;;
61435;SDS011;47304;47.456;19.160;2023-07-29T06:51:32;7.70;;;3.60;;
61435;SDS011;47304;47.456;19.160;2023-07-29T06:53:59;9.00;;;3.40;;
61435;SDS011;47304;47.456;19.160;2023-07-29T06:56:25;8.70;;;3.40;;
61435;SDS011;47304;47.456;19.160;2023-07-29T06:58:52;8.20;;;3.40;;
61435;SDS011;47304;47.456;19.160;2023-07-29T07:01:19;7.80;;;3.00;;
61435;SDS011;47304;47.456;19.160;2023-07-29T07:03:45;8.00;;;3.30;;
61435;SDS011;47304;47.456;19.160;2023-07-29T07:06:12;7.00;;;3.10;;
61435;SDS011;47304;47.456;19.160;2023-07-29T07:08:38;7.50;;;3.00;;
61435;SDS011;47304;47.456;19.160;2023-07-29T07:11:05;7.60;;;3.00;;
61435;SDS011;47304;47.456;19.160;2023-07-29T07:13:31;7.90;;;3.20;;
61435;SDS011;47304;47.456;19.160;2023-07-29T07:15:58;7.60;;;3.10;;
61435;SDS011;47304;47.456;19.160;2023-07-29T07:18:24;6.80;;;2.90;;
61435;SDS011;47304;47.456;19.160;2023-07-29T07:20:51;7.00;;;3.30;;
61435;SDS011;47304;47.456;19.160;2023-07-29T07:23:18;8.60;;;4.00;;
61435;SDS011;47304;47.456;19.160;2023-07-29T07:25:45;6.60;;;3.00;;
61435;SDS011;47304;47.456;19.160;2023-07-29T07:28:11;7.40;;;3.30;;
61435;SDS011;47304;47.456;19.160;2023-07-29T07:30:41;9.10;;;3.50;;
61435;SDS011;47304;47.456;19.160;2023-07-29T07:33:08;7.70;;;3.90;;
61435;SDS011;47304;47.456;19.160;2023-07-29T07:35:35;7.20;;;3.10;;
61435;SDS011;47304;47.456;19.160;2023-07-29T07:38:02;7.50;;;3.50;;
61435;SDS011;47304;47.456;19.160;2023-07-29T07:40:29;6.00;;;2.70;;
61435;SDS011;47304;47.456;19.160;2023-07-29T07:42:59;6.80;;;2.80;;
61435;SDS011;47304;47.456;19.160;2023-07-29T07:45:25;7.40;;;3.20;;
61435;SDS011;47304;47.456;19.160;2023-07-29T07:47:52;7.60;;;2.80;;
61435;SDS011;47304;47.456;19.160;2023-07-29T07:50:19;6.40;;;2.90;;
61435;SDS011;47304;47.456;19.160;2023-07-29T07:52:46;6.60;;;2.70;;
61435;SDS011;47304;47.456;19.160;2023-07-29T07:55:13;6.30;;;2.70;;
61435;SDS011;47304;47.456;19.160;2023-07-29T07:57:40;6.50;;;2.90;;
61435;SDS011;47304;47.456;19.160;2023-07-29T08:00:07;4.80;;;2.20;;
61435;SDS011;47304;47.456;19.160;2023-07-29T08:02:34;6.40;;;2.70;;
61435;SDS011;47304;47.456;19.160;2023-07-29T08:05:01;5.80;;;2.60;;
61435;SDS011;47304;47.456;19.160;2023-07-29T08:07:27;5.70;;;2.80;;
61435;SDS011;47304;47.456;19.160;2023-07-29T08:09:54;5.90;;;2.60;;
61435;SDS011;47304;47.456;19.160;2023-07-29T08:12:20;6.50;;;2.60;;
61435;SDS011;47304;47.456;19.160;2023-07-29T08:14:47;6.10;;;2.60;;
61435;SDS011;47304;47.456;19.160;2023-07-29T08:17:13;8.00;;;3.10;;
61435;SDS011;47304;47.456;19.160;2023-07-29T08:19:40;5.70;;;2.50;;
61435;SDS011;47304;47.456;19.160;2023-07-29T08:22:09;7.40;;;2.90;;
61435;SDS011;47304;47.456;19.160;2023-07-29T08:24:40;5.60;;;2.40;;
61435;SDS011;47304;47.456;19.160;2023-07-29T08:27:13;6.40;;;2.70;;
61435;SDS011;47304;47.456;19.160;2023-07-29T08:29:40;5.30;;;2.50;;
61435;SDS011;47304;47.456;19.160;2023-07-29T08:32:06;5.90;;;2.60;;
61435;SDS011;47304;47.456;19.160;2023-07-29T08:34:33;7.10;;;2.70;;
61435;SDS011;47304;47.456;19.160;2023-07-29T08:37:01;6.00;;;2.60;;
61435;SDS011;47304;47.456;19.160;2023-07-29T08:39:28;6.80;;;2.80;;
61435;SDS011;47304;47.456;19.160;2023-07-29T08:41:59;6.40;;;2.50;;
61435;SDS011;47304;47.456;19.160;2023-07-29T08:44:30;7.70;;;3.80;;
61435;SDS011;47304;47.456;19.160;2023-07-29T08:47:00;6.40;;;2.60;;
61435;SDS011;47304;47.456;19.160;2023-07-29T08:49:27;6.80;;;3.10;;
61435;SDS011;47304;47.456;19.160;2023-07-29T08:51:54;6.80;;;2.50;;
61435;SDS011;47304;47.456;19.160;2023-07-29T08:54:23;5.10;;;2.40;;
61435;SDS011;47304;47.456;19.160;2023-07-29T08:56:50;7.60;;;2.50;;
61435;SDS011;47304;47.456;19.160;2023-07-29T08:59:17;6.80;;;2.60;;
61435;SDS011;47304;47.456;19.160;2023-07-29T09:01:45;5.40;;;2.40;;
61435;SDS011;47304;47.456;19.160;2023-07-29T09:04:13;5.80;;;2.60;;
61435;SDS011;47304;47.456;19.160;2023-07-29T09:06:39;5.50;;;2.40;;
61435;SDS011;47304;47.456;19.160;2023-07-29T09:09:10;7.30;;;2.60;;
61435;SDS011;47304;47.456;19.160;2023-07-29T09:11:37;6.30;;;2.70;;
61435;SDS011;47304;47.456;19.160;2023-07-29T09:14:03;7.30;;;2.80;;
61435;SDS011;47304;47.456;19.160;2023-07-29T09:16:30;6.80;;;2.60;;
61435;SDS011;47304;47.456;19.160;2023-07-29T09:18:58;6.50;;;2.30;;
61435;SDS011;47304;47.456;19.160;2023-07-29T09:21:27;6.80;;;2.40;;
61435;SDS011;47304;47.456;19.160;2023-07-29T09:23:55;5.00;;;2.30;;
61435;SDS011;47304;47.456;19.160;2023-07-29T09:26:25;5.90;;;2.40;;
61435;SDS011;47304;47.456;19.160;2023-07-29T09:28:53;6.30;;;2.50;;
61435;SDS011;47304;47.456;19.160;2023-07-29T09:31:24;7.10;;;2.60;;
61435;SDS011;47304;47.456;19.160;2023-07-29T09:33:56;6.80;;;2.50;;
61435;SDS011;47304;47.456;19.160;2023-07-29T09:36:26;5.40;;;2.10;;
61435;SDS011;47304;47.456;19.160;2023-07-29T09:38:54;6.20;;;2.70;;
61435;SDS011;47304;47.456;19.160;2023-07-29T09:41:22;7.10;;;2.60;;
61435;SDS011;47304;47.456;19.160;2023-07-29T09:43:54;6.40;;;2.60;;
61435;SDS011;47304;47.456;19.160;2023-07-29T09:46:37;5.70;;;2.40;;
61435;SDS011;47304;47.456;19.160;2023-07-29T09:49:06;6.10;;;2.60;;
61435;SDS011;47304;47.456;19.160;2023-07-29T09:51:37;6.10;;;2.40;;
61435;SDS011;47304;47.456;19.160;2023-07-29T09:54:04;4.40;;;2.00;;
61435;SDS011;47304;47.456;19.160;2023-07-29T09:56:31;6.20;;;2.30;;
61435;SDS011;47304;47.456;19.160;2023-07-29T09:58:57;5.80;;;2.30;;
61435;SDS011;47304;47.456;19.160;2023-07-29T10:01:24;5.50;;;2.20;;
61435;SDS011;47304;47.456;19.160;2023-07-29T10:03:51;4.10;;;1.90;;
61435;SDS011;47304;47.456;19.160;2023-07-29T10:06:18;4.30;;;2.00;;
61435;SDS011;47304;47.456;19.160;2023-07-29T10:08:45;4.10;;;1.80;;
61435;SDS011;47304;47.456;19.160;2023-07-29T10:11:15;5.00;;;2.10;;
61435;SDS011;47304;47.456;19.160;2023-07-29T10:13:42;5.10;;;2.00;;
61435;SDS011;47304;47.456;19.160;2023-07-29T10:16:21;5.80;;;2.20;;
61435;SDS011;47304;47.456;19.160;2023-07-29T10:18:49;3.70;;;1.80;;
61435;SDS011;47304;47.456;19.160;2023-07-29T10:21:19;4.90;;;2.20;;
61435;SDS011;47304;47.456;19.160;2023-07-29T10:23:50;4.30;;;2.00;;
61435;SDS011;47304;47.456;19.160;2023-07-29T10:26:21;3.50;;;1.80;;
61435;SDS011;47304;47.456;19.160;2023-07-29T10:28:48;3.90;;;1.80;;
61435;SDS011;47304;47.456;19.160;2023-07-29T10:31:18;5.80;;;2.20;;
61435;SDS011;47304;47.456;19.160;2023-07-29T10:33:46;3.90;;;1.90;;
61435;SDS011;47304;47.456;19.160;2023-07-29T10:36:13;4.40;;;2.10;;
61435;SDS011;47304;47.456;19.160;2023-07-29T10:38:41;4.80;;;2.20;;
61435;SDS011;47304;47.456;19.160;2023-07-29T10:41:07;4.80;;;1.90;;
61435;SDS011;47304;47.456;19.160;2023-07-29T10:43:35;5.20;;;2.20;;
61435;SDS011;47304;47.456;19.160;2023-07-29T10:46:21;4.50;;;2.00;;
61435;SDS011;47304;47.456;19.160;2023-07-29T10:48:56;4.60;;;2.10;;
61435;SDS011;47304;47.456;19.160;2023-07-29T10:53:57;5.30;;;2.10;;
61435;SDS011;47304;47.456;19.160;2023-07-29T10:56:27;4.50;;;2.20;;
61435;SDS011;47304;47.456;19.160;2023-07-29T11:01:40;5.60;;;2.00;;
61435;SDS011;47304;47.456;19.160;2023-07-29T11:15:03;5.50;;;2.20;;
61435;SDS011;47304;47.456;19.160;2023-07-29T11:17:45;5.60;;;2.20;;
61435;SDS011;47304;47.456;19.160;2023-07-29T11:20:13;3.40;;;1.70;;
61435;SDS011;47304;47.456;19.160;2023-07-29T11:22:41;6.90;;;3.30;;
61435;SDS011;47304;47.456;19.160;2023-07-29T11:25:09;4.30;;;1.90;;
61435;SDS011;47304;47.456;19.160;2023-07-29T11:27:37;6.30;;;2.00;;
61435;SDS011;47304;47.456;19.160;2023-07-29T11:30:05;6.10;;;2.20;;
61435;SDS011;47304;47.456;19.160;2023-07-29T11:32:32;4.40;;;1.90;;
61435;SDS011;47304;47.456;19.160;2023-07-29T11:35:03;5.70;;;2.30;;
61435;SDS011;47304;47.456;19.160;2023-07-29T11:37:30;4.40;;;1.80;;
61435;SDS011;47304;47.456;19.160;2023-07-29T11:39:57;3.90;;;2.00;;
61435;SDS011;47304;47.456;19.160;2023-07-29T11:42:23;4.10;;;1.90;;
61435;SDS011;47304;47.456;19.160;2023-07-29T11:44:50;4.30;;;1.90;;
61435;SDS011;47304;47.456;19.160;2023-07-29T11:47:16;4.70;;;1.90;;
61435;SDS011;47304;47.456;19.160;2023-07-29T11:49:43;4.20;;;1.90;;
61435;SDS011;47304;47.456;19.160;2023-07-29T11:52:10;4.60;;;2.10;;
61435;SDS011;47304;47.456;19.160;2023-07-29T11:54:38;3.50;;;1.70;;
61435;SDS011;47304;47.456;19.160;2023-07-29T11:57:08;3.40;;;1.70;;
61435;SDS011;47304;47.456;19.160;2023-07-29T11:59:36;2.90;;;1.70;;
61435;SDS011;47304;47.456;19.160;2023-07-29T12:02:05;4.50;;;2.00;;
61435;SDS011;47304;47.456;19.160;2023-07-29T12:04:37;5.50;;;2.30;;
61435;SDS011;47304;47.456;19.160;2023-07-29T12:07:05;5.20;;;2.30;;
61435;SDS011;47304;47.456;19.160;2023-07-29T12:09:33;3.30;;;1.80;;
61435;SDS011;47304;47.456;19.160;2023-07-29T12:12:01;5.60;;;2.30;;
61435;SDS011;47304;47.456;19.160;2023-07-29T12:14:31;4.90;;;2.10;;
61435;SDS011;47304;47.456;19.160;2023-07-29T12:16:59;6.30;;;2.30;;
61435;SDS011;47304;47.456;19.160;2023-07-29T12:19:31;5.10;;;2.10;;
61435;SDS011;47304;47.456;19.160;2023-07-29T12:22:02;4.20;;;1.80;;
61435;SDS011;47304;47.456;19.160;2023-07-29T12:24:31;5.80;;;2.40;;
61435;SDS011;47304;47.456;19.160;2023-07-29T12:26:58;4.30;;;2.10;;
61435;SDS011;47304;47.456;19.160;2023-07-29T12:29:26;4.20;;;2.00;;
61435;SDS011;47304;47.456;19.160;2023-07-29T12:31:59;4.20;;;1.80;;
61435;SDS011;47304;47.456;19.160;2023-07-29T12:34:28;5.50;;;2.20;;
61435;SDS011;47304;47.456;19.160;2023-07-29T12:36:57;5.30;;;2.20;;
61435;SDS011;47304;47.456;19.160;2023-07-29T12:39:43;5.10;;;2.10;;
61435;SDS011;47304;47.456;19.160;2023-07-29T12:42:09;5.30;;;2.10;;
61435;SDS011;47304;47.456;19.160;2023-07-29T12:44:36;6.30;;;2.30;;
61435;SDS011;47304;47.456;19.160;2023-07-29T12:47:04;4.50;;;1.90;;
61435;SDS011;47304;47.456;19.160;2023-07-29T12:49:32;4.90;;;2.30;;
61435;SDS011;47304;47.456;19.160;2023-07-29T12:51:59;5.90;;;2.40;;
61435;SDS011;47304;47.456;19.160;2023-07-29T12:54:26;4.60;;;2.00;;
61435;SDS011;47304;47.456;19.160;2023-07-29T12:56:53;4.60;;;2.20;;
61435;SDS011;47304;47.456;19.160;2023-07-29T12:59:19;5.80;;;2.40;;
61435;SDS011;47304;47.456;19.160;2023-07-29T13:01:46;6.30;;;2.20;;
61435;SDS011;47304;47.456;19.160;2023-07-29T13:04:12;5.50;;;1.80;;
61435;SDS011;47304;47.456;19.160;2023-07-29T13:06:39;4.40;;;2.10;;
61435;SDS011;47304;47.456;19.160;2023-07-29T13:09:06;5.90;;;2.10;;
61435;SDS011;47304;47.456;19.160;2023-07-29T13:11:33;4.40;;;1.80;;
61435;SDS011;47304;47.456;19.160;2023-07-29T13:13:59;5.10;;;2.20;;
61435;SDS011;47304;47.456;19.160;2023-07-29T13:16:27;6.30;;;2.20;;
61435;SDS011;47304;47.456;19.160;2023-07-29T13:18:54;5.20;;;2.30;;
61435;SDS011;47304;47.456;19.160;2023-07-29T13:21:21;4.40;;;2.00;;
61435;SDS011;47304;47.456;19.160;2023-07-29T13:23:47;3.20;;;1.70;;
61435;SDS011;47304;47.456;19.160;2023-07-29T13:26:14;3.60;;;1.80;;
61435;SDS011;47304;47.456;19.160;2023-07-29T13:28:40;5.70;;;2.20;;
61435;SDS011;47304;47.456;19.160;2023-07-29T13:31:07;5.10;;;2.00;;
61435;SDS011;47304;47.456;19.160;2023-07-29T13:33:33;6.60;;;2.20;;
61435;SDS011;47304;47.456;19.160;2023-07-29T13:36:00;4.90;;;2.00;;
61435;SDS011;47304;47.456;19.160;2023-07-29T13:38:27;7.20;;;2.80;;
61435;SDS011;47304;47.456;19.160;2023-07-29T13:40:54;7.40;;;2.40;;
61435;SDS011;47304;47.456;19.160;2023-07-29T13:43:21;5.10;;;2.10;;
61435;SDS011;47304;47.456;19.160;2023-07-29T13:45:47;4.70;;;2.00;;
61435;SDS011;47304;47.456;19.160;2023-07-29T13:48:14;5.20;;;2.10;;
61435;SDS011;47304;47.456;19.160;2023-07-29T13:50:40;4.30;;;1.90;;
61435;SDS011;47304;47.456;19.160;2023-07-29T13:53:07;3.90;;;1.80;;
61435;SDS011;47304;47.456;19.160;2023-07-29T13:55:33;4.30;;;1.80;;
61435;SDS011;47304;47.456;19.160;2023-07-29T13:58:00;4.60;;;2.20;;
61435;SDS011;47304;47.456;19.160;2023-07-29T14:00:27;5.00;;;2.10;;
61435;SDS011;47304;47.456;19.160;2023-07-29T14:02:53;5.20;;;2.10;;
61435;SDS011;47304;47.456;19.160;2023-07-29T14:05:20;4.00;;;2.00;;
61435;SDS011;47304;47.456;19.160;2023-07-29T14:07:46;4.40;;;1.90;;
61435;SDS011;47304;47.456;19.160;2023-07-29T14:10:14;6.10;;;2.10;;
61435;SDS011;47304;47.456;19.160;2023-07-29T14:12:41;4.70;;;2.10;;
61435;SDS011;47304;47.456;19.160;2023-07-29T14:15:07;4.40;;;1.80;;
61435;SDS011;47304;47.456;19.160;2023-07-29T14:17:34;7.20;;;2.20;;
61435;SDS011;47304;47.456;19.160;2023-07-29T14:20:01;5.40;;;2.30;;
61435;SDS011;47304;47.456;19.160;2023-07-29T14:22:28;4.40;;;2.00;;
61435;SDS011;47304;47.456;19.160;2023-07-29T14:24:54;7.40;;;2.20;;
61435;SDS011;47304;47.456;19.160;2023-07-29T14:27:25;4.50;;;2.00;;
61435;SDS011;47304;47.456;19.160;2023-07-29T14:29:52;4.10;;;1.80;;
61435;SDS011;47304;47.456;19.160;2023-07-29T14:32:18;5.10;;;2.30;;
61435;SDS011;47304;47.456;19.160;2023-07-29T14:34:48;5.10;;;2.30;;
61435;SDS011;47304;47.456;19.160;2023-07-29T14:37:15;5.90;;;2.20;;
61435;SDS011;47304;47.456;19.160;2023-07-29T14:39:41;5.10;;;2.30;;
61435;SDS011;47304;47.456;19.160;2023-07-29T14:42:08;5.60;;;2.10;;
61435;SDS011;47304;47.456;19.160;2023-07-29T14:44:34;4.70;;;1.90;;
61435;SDS011;47304;47.456;19.160;2023-07-29T14:47:01;5.50;;;2.10;;
61435;SDS011;47304;47.456;19.160;2023-07-29T14:49:27;10.10;;;5.90;;
61435;SDS011;47304;47.456;19.160;2023-07-29T14:51:54;7.60;;;2.90;;
61435;SDS011;47304;47.456;19.160;2023-07-29T14:54:20;7.50;;;2.30;;
61435;SDS011;47304;47.456;19.160;2023-07-29T14:56:47;6.30;;;2.60;;
61435;SDS011;47304;47.456;19.160;2023-07-29T14:59:13;5.50;;;2.30;;
61435;SDS011;47304;47.456;19.160;2023-07-29T15:01:40;5.20;;;2.10;;
61435;SDS011;47304;47.456;19.160;2023-07-29T15:04:06;4.80;;;2.20;;
61435;SDS011;47304;47.456;19.160;2023-07-29T15:06:33;5.10;;;2.10;;
61435;SDS011;47304;47.456;19.160;2023-07-29T15:09:00;4.50;;;2.10;;